Time,TemperatureF,DewpointF,PressureIn,WindDirection,WindDirectionDegrees,WindSpeedMPH,WindSpeedGustMPH,Humidity,HourlyPrecipIn,Conditions,Clouds,dailyrainin,SoftwareType,DateUTC
2013-08-11 00:02:00,59.5,23.7,29.59,SE,140,2.7,2.7,25,0.00,,SKC,0.00,VWS V14.01,2013-08-11 07:02:00,
2013-08-11 00:07:00,59.9,24.0,29.59,SE,140,0.0,0.0,25,0.00,,SKC,0.00,VWS V14.01,2013-08-11 07:07:00,
2013-08-11 00:13:00,59.2,23.4,29.59,SE,140,0.0,0.0,25,0.00,,SKC,0.00,VWS V14.01,2013-08-11 07:13:00,
2013-08-11 00:18:00,58.8,24.0,29.59,SE,140,0.0,0.0,26,0.00,,SKC,0.00,VWS V14.01,2013-08-11 07:18:00,
2013-08-11 00:23:00,58.5,23.7,29.56,ESE,103,0.0,0.0,26,0.00,,SKC,0.00,VWS V14.01,2013-08-11 07:23:00,
2013-08-11 00:28:00,59.4,23.6,29.56,ESE,106,0.0,0.0,25,0.00,,SKC,0.00,VWS V14.01,2013-08-11 07:28:00,
2013-08-11 00:33:00,60.1,24.2,29.56,South,184,3.6,5.4,25,0.00,,SKC,0.00,VWS V14.01,2013-08-11 07:33:00,
2013-08-11 00:38:00,59.2,23.4,29.56,South,172,0.0,0.0,25,0.00,,SKC,0.00,VWS V14.01,2013-08-11 07:38:00,
2013-08-11 00:43:00,58.1,23.4,29.56,South,179,0.0,0.0,26,0.00,,SKC,0.00,VWS V14.01,2013-08-11 07:43:00,
2013-08-11 00:48:00,56.8,23.2,29.56,South,179,0.0,0.0,27,0.00,,SKC,0.00,VWS V14.01,2013-08-11 07:48:00,
2013-08-11 00:53:00,55.9,25.0,29.56,South,179,0.0,0.0,30,0.00,,SKC,0.00,VWS V14.01,2013-08-11 07:53:00,
2013-08-11 00:58:00,55.8,26.4,29.56,South,179,0.0,0.0,32,0.00,,SKC,0.00,VWS V14.01,2013-08-11 07:58:00,
2013-08-11 01:03:00,55.8,28.5,29.56,South,179,0.0,0.0,35,0.00,,SKC,0.00,VWS V14.01,2013-08-11 08:03:00,
2013-08-11 01:08:00,55.2,28.1,29.56,South,179,0.0,0.0,35,0.00,,SKC,0.00,VWS V14.01,2013-08-11 08:08:00,
2013-08-11 01:14:00,54.9,27.8,29.56,South,179,0.0,0.0,35,0.00,,SKC,0.00,VWS V14.01,2013-08-11 08:14:00,
2013-08-11 01:19:00,54.3,27.3,29.56,South,179,0.0,0.0,35,0.00,,SKC,0.00,VWS V14.01,2013-08-11 08:19:00,
2013-08-11 01:24:00,54.0,27.6,29.56,South,179,0.0,0.0,36,0.00,,SKC,0.00,VWS V14.01,2013-08-11 08:24:00,
2013-08-11 01:29:00,54.3,28.0,29.56,South,179,0.0,0.0,36,0.00,,SKC,0.00,VWS V14.01,2013-08-11 08:29:00,
2013-08-11 01:34:00,54.9,28.4,29.56,South,179,0.0,0.0,36,0.00,,SKC,0.00,VWS V14.01,2013-08-11 08:34:00,
2013-08-11 01:39:00,55.4,28.2,29.56,South,179,0.0,0.0,35,0.00,,SKC,0.00,VWS V14.01,2013-08-11 08:39:00,
2013-08-11 01:44:00,55.0,27.9,29.56,South,179,0.0,0.0,35,0.00,,SKC,0.00,VWS V14.01,2013-08-11 08:44:00,
2013-08-11 01:49:00,54.9,28.4,29.56,South,179,0.0,0.0,36,0.00,,SKC,0.00,VWS V14.01,2013-08-11 08:49:00,
2013-08-11 01:54:00,54.9,27.8,29.56,South,179,0.0,0.0,35,0.00,,SKC,0.00,VWS V14.01,2013-08-11 08:54:00,
2013-08-11 01:59:00,54.3,27.3,29.56,South,179,0.0,0.0,35,0.00,,SKC,0.00,VWS V14.01,2013-08-11 08:59:00,
2013-08-11 02:04:00,53.6,26.6,29.56,South,179,0.0,0.0,35,0.00,,SKC,0.00,VWS V14.01,2013-08-11 09:04:00,
2013-08-11 02:09:00,53.1,26.8,29.56,South,179,0.0,0.0,36,0.00,,SKC,0.00,VWS V14.01,2013-08-11 09:09:00,
2013-08-11 02:15:00,53.1,27.5,29.56,South,179,0.0,0.0,37,0.00,,SKC,0.00,VWS V14.01,2013-08-11 09:15:00,
2013-08-11 02:20:00,52.9,27.3,29.56,South,179,0.0,0.0,37,0.00,,SKC,0.00,VWS V14.01,2013-08-11 09:20:00,
2013-08-11 02:25:00,52.5,27.0,29.59,South,179,0.0,0.0,37,0.00,,SKC,0.00,VWS V14.01,2013-08-11 09:25:00,
2013-08-11 02:29:00,52.2,26.7,29.59,South,179,0.0,0.0,37,0.00,,SKC,0.00,VWS V14.01,2013-08-11 09:29:00,
2013-08-11 02:35:00,51.8,26.4,29.59,South,179,0.0,0.0,37,0.00,,SKC,0.00,VWS V14.01,2013-08-11 09:35:00,
2013-08-11 02:40:00,51.8,27.0,29.56,South,179,0.0,0.0,38,0.00,,SKC,0.00,VWS V14.01,2013-08-11 09:40:00,
2013-08-11 02:45:00,51.8,26.4,29.56,South,179,0.0,0.0,37,0.00,,SKC,0.00,VWS V14.01,2013-08-11 09:45:00,
2013-08-11 02:50:00,51.8,26.4,29.56,South,179,0.0,0.0,37,0.00,,SKC,0.00,VWS V14.01,2013-08-11 09:50:00,
2013-08-11 02:55:00,51.6,26.2,29.56,South,179,0.0,0.0,37,0.00,,SKC,0.00,VWS V14.01,2013-08-11 09:55:00,
2013-08-11 03:00:00,50.9,26.2,29.56,South,179,0.0,0.0,38,0.00,,SKC,0.00,VWS V14.01,2013-08-11 10:00:00,
2013-08-11 03:05:00,50.7,26.0,29.56,South,179,0.0,0.0,38,0.00,,SKC,0.00,VWS V14.01,2013-08-11 10:05:00,
2013-08-11 03:10:00,51.1,26.4,29.56,South,179,0.0,0.0,38,0.00,,SKC,0.00,VWS V14.01,2013-08-11 10:10:00,
2013-08-11 03:15:00,51.1,26.4,29.56,South,179,0.0,0.0,38,0.00,,SKC,0.00,VWS V14.01,2013-08-11 10:15:00,
2013-08-11 03:20:00,50.9,26.2,29.56,South,179,0.0,0.0,38,0.00,,SKC,0.00,VWS V14.01,2013-08-11 10:20:00,
2013-08-11 03:25:00,50.2,25.6,29.56,South,179,0.0,0.0,38,0.00,,SKC,0.00,VWS V14.01,2013-08-11 10:25:00,
2013-08-11 03:30:00,49.6,25.7,29.56,South,179,0.0,0.0,39,0.00,,SKC,0.00,VWS V14.01,2013-08-11 10:30:00,
2013-08-11 03:35:00,49.5,26.2,29.56,South,179,0.0,0.0,40,0.00,,SKC,0.00,VWS V14.01,2013-08-11 10:35:00,
2013-08-11 03:40:00,49.3,26.0,29.56,South,179,0.0,0.0,40,0.00,,SKC,0.00,VWS V14.01,2013-08-11 10:40:00,
2013-08-11 03:45:00,49.1,26.4,29.56,South,179,0.0,0.0,41,0.00,,SKC,0.00,VWS V14.01,2013-08-11 10:45:00,
2013-08-11 03:50:00,48.7,26.1,29.56,South,179,0.0,0.0,41,0.00,,SKC,0.00,VWS V14.01,2013-08-11 10:50:00,
2013-08-11 03:55:00,48.7,26.1,29.56,South,179,0.0,0.0,41,0.00,,SKC,0.00,VWS V14.01,2013-08-11 10:55:00,
2013-08-11 04:00:00,48.6,26.0,29.56,South,179,0.0,0.0,41,0.00,,SKC,0.00,VWS V14.01,2013-08-11 11:00:00,
2013-08-11 04:05:00,48.6,27.1,29.56,South,179,0.0,0.0,43,0.00,,SKC,0.00,VWS V14.01,2013-08-11 11:05:00,
2013-08-11 04:10:00,48.7,27.3,29.56,South,179,0.0,0.0,43,0.00,,SKC,0.00,VWS V14.01,2013-08-11 11:10:00,
2013-08-11 04:15:00,48.7,26.7,29.56,South,179,0.0,0.0,42,0.00,,SKC,0.00,VWS V14.01,2013-08-11 11:15:00,
2013-08-11 04:20:00,48.7,27.3,29.56,South,179,0.0,0.0,43,0.00,,SKC,0.00,VWS V14.01,2013-08-11 11:20:00,
2013-08-11 04:25:00,48.6,27.1,29.56,South,179,0.0,0.0,43,0.00,,SKC,0.00,VWS V14.01,2013-08-11 11:25:00,
2013-08-11 04:30:00,48.9,27.4,29.56,South,179,0.0,0.0,43,0.00,,SKC,0.00,VWS V14.01,2013-08-11 11:30:00,
2013-08-11 04:35:00,48.9,26.9,29.56,South,179,0.0,0.0,42,0.00,,SKC,0.00,VWS V14.01,2013-08-11 11:35:00,
2013-08-11 04:41:00,48.7,26.7,29.56,South,179,0.0,0.0,42,0.00,,SKC,0.00,VWS V14.01,2013-08-11 11:41:00,
2013-08-11 04:46:00,48.7,26.7,29.56,South,179,0.0,0.0,42,0.00,,SKC,0.00,VWS V14.01,2013-08-11 11:46:00,
2013-08-11 04:51:00,48.4,25.8,29.56,South,179,0.0,0.0,41,0.00,,SKC,0.00,VWS V14.01,2013-08-11 11:51:00,
2013-08-11 04:56:00,48.2,26.8,29.56,South,179,0.0,0.0,43,0.00,,SKC,0.00,VWS V14.01,2013-08-11 11:56:00,
2013-08-11 05:01:00,48.2,26.2,29.56,South,179,0.0,0.0,42,0.00,,SKC,0.00,VWS V14.01,2013-08-11 12:01:00,
2013-08-11 05:06:00,48.0,26.0,29.56,South,179,0.0,0.0,42,0.00,,SKC,0.00,VWS V14.01,2013-08-11 12:06:00,
2013-08-11 05:11:00,48.0,26.0,29.56,South,179,0.0,0.0,42,0.00,,SKC,0.00,VWS V14.01,2013-08-11 12:11:00,
2013-08-11 05:16:00,47.8,25.9,29.56,South,179,0.0,0.0,42,0.00,,SKC,0.00,VWS V14.01,2013-08-11 12:16:00,
2013-08-11 05:21:00,47.8,25.9,29.56,South,179,0.0,0.0,42,0.00,,SKC,0.00,VWS V14.01,2013-08-11 12:21:00,
2013-08-11 05:26:00,48.4,25.2,29.56,South,179,0.0,0.0,40,0.00,,SKC,0.00,VWS V14.01,2013-08-11 12:26:00,
2013-08-11 05:31:00,48.7,24.9,29.56,South,179,0.0,0.0,39,0.00,,SKC,0.00,VWS V14.01,2013-08-11 12:31:00,
2013-08-11 05:36:00,48.4,24.6,29.56,South,179,0.0,0.0,39,0.00,,SKC,0.00,VWS V14.01,2013-08-11 12:36:00,
2013-08-11 05:42:00,47.7,23.9,29.65,South,179,0.0,0.0,39,0.00,,SKC,0.00,VWS V14.01,2013-08-11 12:42:00,
2013-08-11 05:47:00,47.5,24.4,29.65,South,179,0.0,0.0,40,0.00,,SKC,0.00,VWS V14.01,2013-08-11 12:47:00,
2013-08-11 05:52:00,48.0,24.3,29.65,SSE,156,0.0,0.0,39,0.00,,SKC,0.00,VWS V14.01,2013-08-11 12:52:00,
2013-08-11 05:57:00,48.2,23.8,29.56,SSE,148,0.0,0.0,38,0.00,,SKC,0.00,VWS V14.01,2013-08-11 12:57:00,
2013-08-11 06:02:00,48.7,23.6,29.56,SE,131,3.1,3.1,37,0.00,,SKC,0.00,VWS V14.01,2013-08-11 13:02:00,
2013-08-11 06:07:00,49.3,24.1,29.56,SE,127,4.9,4.9,37,0.00,,SKC,0.00,VWS V14.01,2013-08-11 13:07:00,
2013-08-11 06:12:00,49.8,24.0,29.56,SE,127,3.6,3.6,36,0.00,,SKC,0.00,VWS V14.01,2013-08-11 13:12:00,
2013-08-11 06:17:00,50.2,23.6,29.56,SE,136,3.6,3.6,35,0.00,,SKC,0.00,VWS V14.01,2013-08-11 13:17:00,
2013-08-11 06:22:00,50.4,22.4,29.56,SE,136,3.6,3.6,33,0.00,,SKC,0.00,VWS V14.01,2013-08-11 13:22:00,
2013-08-11 06:27:00,50.5,21.8,29.56,SE,135,4.0,4.0,32,0.00,,SKC,0.00,VWS V14.01,2013-08-11 13:27:00,
2013-08-11 06:32:00,51.1,22.3,29.56,SE,132,0.0,0.0,32,0.00,,SKC,0.00,VWS V14.01,2013-08-11 13:32:00,
2013-08-11 06:37:00,51.4,21.8,29.56,SE,125,3.6,3.6,31,0.00,,SKC,0.00,VWS V14.01,2013-08-11 13:37:00,
2013-08-11 06:42:00,51.8,21.4,29.56,ESE,116,3.6,4.0,30,0.00,,SKC,0.00,VWS V14.01,2013-08-11 13:42:00,
2013-08-11 06:48:00,52.5,21.2,29.56,ESE,121,3.1,3.6,29,0.00,,SKC,0.00,VWS V14.01,2013-08-11 13:48:00,
2013-08-11 06:53:00,53.4,21.1,29.56,ESE,114,4.0,4.0,28,0.00,,SKC,0.00,VWS V14.01,2013-08-11 13:53:00,
2013-08-11 06:58:00,54.3,21.9,29.56,SE,130,3.1,3.6,28,0.00,,SKC,0.00,VWS V14.01,2013-08-11 13:58:00,
2013-08-11 07:03:00,55.2,21.8,29.56,SE,135,3.6,3.6,27,0.00,,SKC,0.00,VWS V14.01,2013-08-11 14:03:00,
2013-08-11 07:08:00,56.3,22.8,29.56,SE,133,3.1,3.6,27,0.00,,SKC,0.00,VWS V14.01,2013-08-11 14:08:00,
2013-08-11 07:13:00,57.0,22.5,29.56,SE,142,2.7,3.1,26,0.00,,SKC,0.00,VWS V14.01,2013-08-11 14:13:00,
2013-08-11 07:18:00,58.1,22.5,29.56,SE,142,2.7,3.1,25,0.00,,SKC,0.00,VWS V14.01,2013-08-11 14:18:00,
2013-08-11 07:23:00,59.2,23.4,29.56,SE,131,4.9,4.9,25,0.00,,SKC,0.00,VWS V14.01,2013-08-11 14:23:00,
2013-08-11 07:28:00,59.5,22.7,29.56,SE,145,3.1,3.6,24,0.00,,SKC,0.00,VWS V14.01,2013-08-11 14:28:00,
2013-08-11 07:33:00,60.3,23.4,29.56,SSE,148,3.1,4.0,24,0.00,,SKC,0.00,VWS V14.01,2013-08-11 14:33:00,
2013-08-11 07:39:00,60.6,23.6,29.56,SSE,148,3.6,5.4,24,0.00,,SKC,0.00,VWS V14.01,2013-08-11 14:39:00,
2013-08-11 07:44:00,61.2,24.1,29.56,SE,141,3.1,5.4,24,0.00,,SKC,0.00,VWS V14.01,2013-08-11 14:44:00,
2013-08-11 07:49:00,62.2,25.0,29.56,SSE,167,0.0,0.0,24,0.00,,SKC,0.00,VWS V14.01,2013-08-11 14:49:00,
2013-08-11 07:54:00,63.5,25.1,29.56,SSE,167,0.0,0.0,23,0.00,,SKC,0.00,VWS V14.01,2013-08-11 14:54:00,
2013-08-11 07:59:00,64.4,25.8,29.56,SSE,163,0.0,0.0,23,0.00,,SKC,0.00,VWS V14.01,2013-08-11 14:59:00,
2013-08-11 08:04:00,65.5,26.7,29.56,SSE,162,0.0,0.0,23,0.00,,SKC,0.00,VWS V14.01,2013-08-11 15:04:00,
2013-08-11 08:09:00,66.0,27.2,29.56,SSE,162,0.0,0.0,23,0.00,,SKC,0.00,VWS V14.01,2013-08-11 15:09:00,
2013-08-11 08:14:00,66.9,24.6,29.56,SSE,162,0.0,0.0,20,0.00,,SKC,0.00,VWS V14.01,2013-08-11 15:14:00,
2013-08-11 08:19:00,67.8,25.3,29.56,SE,131,0.0,0.0,20,0.00,,SKC,0.00,VWS V14.01,2013-08-11 15:19:00,
2013-08-11 08:24:00,68.7,26.1,29.59,South,182,0.0,0.0,20,0.00,,SKC,0.00,VWS V14.01,2013-08-11 15:24:00,
2013-08-11 08:29:00,69.3,26.5,29.59,South,189,0.0,0.0,20,0.00,,SKC,0.00,VWS V14.01,2013-08-11 15:29:00,
2013-08-11 08:34:00,69.4,26.7,29.59,West,280,0.0,0.0,20,0.00,,SKC,0.00,VWS V14.01,2013-08-11 15:34:00,
2013-08-11 08:40:00,69.3,28.8,29.56,NW,313,3.6,5.8,22,0.00,,SKC,0.00,VWS V14.01,2013-08-11 15:40:00,
2013-08-11 08:45:00,68.9,29.6,29.56,West,280,3.1,4.9,23,0.00,,SKC,0.00,VWS V14.01,2013-08-11 15:45:00,
2013-08-11 08:50:00,68.4,28.1,29.56,WNW,283,0.0,0.0,22,0.00,,SKC,0.00,VWS V14.01,2013-08-11 15:50:00,
2013-08-11 08:55:00,68.2,27.9,29.56,WNW,283,0.0,0.0,22,0.00,,SKC,0.00,VWS V14.01,2013-08-11 15:55:00,
2013-08-11 09:00:00,68.5,28.2,29.56,WNW,283,0.0,0.0,22,0.00,,SKC,0.00,VWS V14.01,2013-08-11 16:00:00,
2013-08-11 09:05:00,69.3,26.5,29.56,WNW,286,0.0,0.0,20,0.00,,SKC,0.00,VWS V14.01,2013-08-11 16:05:00,
2013-08-11 09:10:00,69.4,26.7,29.56,WNW,286,0.0,0.0,20,0.00,,SKC,0.00,VWS V14.01,2013-08-11 16:10:00,
2013-08-11 09:15:00,70.0,25.9,29.56,WNW,287,0.0,0.0,19,0.00,,SKC,0.00,VWS V14.01,2013-08-11 16:15:00,
2013-08-11 09:20:00,70.0,25.9,29.56,West,281,2.7,3.1,19,0.00,,SKC,0.00,VWS V14.01,2013-08-11 16:20:00,
2013-08-11 09:26:00,69.6,26.8,29.56,West,281,0.0,0.0,20,0.00,,SKC,0.00,VWS V14.01,2013-08-11 16:26:00,
2013-08-11 09:31:00,70.0,23.2,29.56,West,281,0.0,0.0,17,0.00,,SKC,0.00,VWS V14.01,2013-08-11 16:31:00,
2013-08-11 09:36:00,69.6,26.8,29.56,West,281,4.0,4.0,20,0.00,,SKC,0.00,VWS V14.01,2013-08-11 16:36:00,
2013-08-11 09:41:00,69.3,26.5,29.56,WNW,282,4.9,5.4,20,0.00,,SKC,0.00,VWS V14.01,2013-08-11 16:41:00,
2013-08-11 09:46:00,70.0,25.9,29.56,West,280,0.0,3.1,19,0.00,,SKC,0.00,VWS V14.01,2013-08-11 16:46:00,
2013-08-11 09:51:00,71.1,26.8,29.56,WNW,295,3.1,4.0,19,0.00,,SKC,0.00,VWS V14.01,2013-08-11 16:51:00,
2013-08-11 09:56:00,71.1,26.8,29.56,WNW,293,0.0,4.0,19,0.00,,SKC,0.00,VWS V14.01,2013-08-11 16:56:00,
2013-08-11 10:01:00,71.2,26.9,29.56,WNW,284,0.0,0.0,19,0.00,,SKC,0.00,VWS V14.01,2013-08-11 17:01:00,
2013-08-11 10:06:00,71.8,27.3,29.56,WNW,287,0.0,4.0,19,0.00,,SKC,0.00,VWS V14.01,2013-08-11 17:06:00,
2013-08-11 10:11:00,72.0,27.5,29.56,WNW,291,0.0,0.0,19,0.00,,SKC,0.00,VWS V14.01,2013-08-11 17:11:00,
2013-08-11 10:16:00,72.9,28.2,29.56,WNW,291,0.0,0.0,19,0.00,,SKC,0.00,VWS V14.01,2013-08-11 17:16:00,
2013-08-11 10:21:00,73.6,24.7,29.56,North,353,5.4,6.3,16,0.00,,SKC,0.00,VWS V14.01,2013-08-11 17:21:00,
2013-08-11 10:26:00,73.8,24.8,29.56,North,353,4.5,4.5,16,0.00,,SKC,0.00,VWS V14.01,2013-08-11 17:26:00,
2013-08-11 10:31:00,73.4,24.5,29.56,West,279,5.4,5.4,16,0.00,,SKC,0.00,VWS V14.01,2013-08-11 17:31:00,
2013-08-11 10:36:00,73.8,24.8,29.56,WNW,283,3.6,3.6,16,0.00,,SKC,0.00,VWS V14.01,2013-08-11 17:36:00,
2013-08-11 10:41:00,73.2,24.4,29.56,WNW,285,0.0,2.2,16,0.00,,SKC,0.00,VWS V14.01,2013-08-11 17:41:00,
2013-08-11 10:46:00,73.2,24.4,29.56,WNW,294,0.0,3.6,16,0.00,,SKC,0.00,VWS V14.01,2013-08-11 17:46:00,
2013-08-11 10:51:00,73.4,24.5,29.56,West,271,2.7,3.1,16,0.00,,SKC,0.00,VWS V14.01,2013-08-11 17:51:00,
2013-08-11 10:56:00,73.8,24.8,29.56,WNW,300,0.0,0.0,16,0.00,,SKC,0.00,VWS V14.01,2013-08-11 17:56:00,
2013-08-11 11:01:00,74.1,25.1,29.56,NW,311,2.2,4.9,16,0.00,,SKC,0.00,VWS V14.01,2013-08-11 18:01:00,
2013-08-11 11:06:00,74.8,28.5,29.56,NW,305,0.0,0.0,18,0.00,,SKC,0.00,VWS V14.01,2013-08-11 18:06:00,
2013-08-11 11:11:00,75.7,24.9,29.56,West,272,2.7,5.4,15,0.00,,SKC,0.00,VWS V14.01,2013-08-11 18:11:00,
2013-08-11 11:17:00,75.4,24.6,29.56,West,274,3.6,3.6,15,0.00,,SKC,0.00,VWS V14.01,2013-08-11 18:17:00,
2013-08-11 11:22:00,75.7,24.9,29.56,WNW,301,3.1,6.3,15,0.00,,SKC,0.00,VWS V14.01,2013-08-11 18:22:00,
2013-08-11 11:27:00,75.6,24.7,29.56,WNW,284,5.8,5.8,15,0.00,,SKC,0.00,VWS V14.01,2013-08-11 18:27:00,
2013-08-11 11:32:00,75.7,24.9,29.56,WNW,299,4.0,6.3,15,0.00,,SKC,0.00,VWS V14.01,2013-08-11 18:32:00,
2013-08-11 11:37:00,75.7,24.9,29.56,WNW,302,6.3,6.3,15,0.00,,SKC,0.00,VWS V14.01,2013-08-11 18:37:00,
2013-08-11 11:42:00,76.3,25.3,29.56,NNW,329,2.7,3.1,15,0.00,,SKC,0.00,VWS V14.01,2013-08-11 18:42:00,
2013-08-11 11:47:00,76.6,25.6,29.56,NW,314,6.3,6.3,15,0.00,,SKC,0.00,VWS V14.01,2013-08-11 18:47:00,
2013-08-11 11:52:00,76.8,25.7,29.56,NW,310,2.7,5.8,15,0.00,,SKC,0.00,VWS V14.01,2013-08-11 18:52:00,
2013-08-11 11:57:00,76.8,25.7,29.53,WNW,286,4.0,5.4,15,0.00,,SKC,0.00,VWS V14.01,2013-08-11 18:57:00,
2013-08-11 12:02:00,77.2,26.0,29.53,NNW,335,2.7,2.7,15,0.00,,SKC,0.00,VWS V14.01,2013-08-11 19:02:00,
2013-08-11 12:07:00,77.7,26.4,29.53,WNW,295,6.7,6.7,15,0.00,,SKC,0.00,VWS V14.01,2013-08-11 19:07:00,
2013-08-11 12:12:00,78.4,27.0,29.53,NNW,345,3.1,3.1,15,0.00,,SKC,0.00,VWS V14.01,2013-08-11 19:12:00,
2013-08-11 12:17:00,78.4,27.0,29.53,NW,307,5.4,5.4,15,0.00,,SKC,0.00,VWS V14.01,2013-08-11 19:17:00,
2013-08-11 12:23:00,78.6,27.1,29.53,WSW,251,4.0,5.8,15,0.00,,SKC,0.00,VWS V14.01,2013-08-11 19:23:00,
2013-08-11 12:28:00,79.0,27.4,29.53,NW,311,8.1,8.1,15,0.00,,SKC,0.00,VWS V14.01,2013-08-11 19:28:00,
2013-08-11 12:33:00,79.3,27.7,29.53,WNW,301,7.6,7.6,15,0.00,,SKC,0.00,VWS V14.01,2013-08-11 19:33:00,
2013-08-11 12:38:00,80.1,28.3,29.53,NNW,338,3.1,4.9,15,0.00,,SKC,0.00,VWS V14.01,2013-08-11 19:38:00,
2013-08-11 12:43:00,79.9,28.1,29.53,West,277,0.0,4.0,15,0.00,,SKC,0.00,VWS V14.01,2013-08-11 19:43:00,
2013-08-11 12:48:00,79.9,28.1,29.53,West,263,3.6,6.3,15,0.00,,SKC,0.00,VWS V14.01,2013-08-11 19:48:00,
2013-08-11 12:53:00,80.2,28.4,29.53,WNW,289,2.7,4.9,15,0.00,,SKC,0.00,VWS V14.01,2013-08-11 19:53:00,
2013-08-11 12:58:00,81.0,27.3,29.53,NNW,345,5.4,5.4,14,0.00,,SKC,0.00,VWS V14.01,2013-08-11 19:58:00,
2013-08-11 13:03:00,80.8,27.2,29.53,West,278,5.8,6.3,14,0.00,,SKC,0.00,VWS V14.01,2013-08-11 20:03:00,
2013-08-11 13:08:00,80.8,27.2,29.53,North,357,4.0,4.9,14,0.00,,SKC,0.00,VWS V14.01,2013-08-11 20:08:00,
2013-08-11 13:13:00,81.5,27.8,29.53,NNE,15,0.0,0.0,14,0.00,,SKC,0.00,VWS V14.01,2013-08-11 20:13:00,
2013-08-11 13:18:00,81.5,27.8,29.53,SW,231,0.0,0.0,14,0.00,,SKC,0.00,VWS V14.01,2013-08-11 20:18:00,
2013-08-11 13:23:00,81.9,28.0,29.53,West,262,3.6,3.6,14,0.00,,SKC,0.00,VWS V14.01,2013-08-11 20:23:00,
2013-08-11 13:28:00,82.6,28.6,29.53,WSW,255,4.9,5.8,14,0.00,,SKC,0.00,VWS V14.01,2013-08-11 20:28:00,
2013-08-11 13:33:00,82.8,28.8,29.53,West,273,5.4,5.4,14,0.00,,SKC,0.00,VWS V14.01,2013-08-11 20:33:00,
2013-08-11 13:38:00,82.9,28.9,29.53,North,2,2.7,2.7,14,0.00,,SKC,0.00,VWS V14.01,2013-08-11 20:38:00,
2013-08-11 13:43:00,83.5,29.3,29.53,NNW,337,5.8,8.1,14,0.00,,SKC,0.00,VWS V14.01,2013-08-11 20:43:00,
2013-08-11 13:48:00,83.5,29.3,29.53,NNW,337,0.0,0.0,14,0.00,,SKC,0.00,VWS V14.01,2013-08-11 20:48:00,
2013-08-11 13:53:00,83.5,29.3,29.53,North,353,3.6,6.3,14,0.00,,SKC,0.00,VWS V14.01,2013-08-11 20:53:00,
2013-08-11 13:58:00,83.7,29.5,29.53,NW,312,3.6,3.6,14,0.00,,SKC,0.00,VWS V14.01,2013-08-11 20:58:00,
2013-08-11 14:03:00,84.2,28.1,29.53,WNW,299,0.0,2.2,13,0.00,,SKC,0.00,VWS V14.01,2013-08-11 21:03:00,
2013-08-11 14:09:00,84.9,28.6,29.53,WNW,288,3.1,5.4,13,0.00,,SKC,0.00,VWS V14.01,2013-08-11 21:09:00,
2013-08-11 14:13:00,84.6,28.4,29.53,East,100,0.0,0.0,13,0.00,,SKC,0.00,VWS V14.01,2013-08-11 21:13:00,
2013-08-11 14:19:00,85.1,28.8,29.53,North,350,3.1,5.4,13,0.00,,SKC,0.00,VWS V14.01,2013-08-11 21:19:00,
2013-08-11 14:24:00,84.7,28.5,29.53,NNW,348,4.0,5.4,13,0.00,,SKC,0.00,VWS V14.01,2013-08-11 21:24:00,
2013-08-11 14:29:00,85.1,28.8,29.53,NW,306,7.6,7.6,13,0.00,,SKC,0.00,VWS V14.01,2013-08-11 21:29:00,
2013-08-11 14:33:00,85.6,29.2,29.53,WNW,296,7.6,7.6,13,0.00,,SKC,0.00,VWS V14.01,2013-08-11 21:33:00,
2013-08-11 14:39:00,85.3,28.9,29.53,North,4,7.6,10.1,13,0.00,,SKC,0.00,VWS V14.01,2013-08-11 21:39:00,
2013-08-11 14:44:00,85.1,28.8,29.53,NNW,337,4.0,8.1,13,0.00,,SKC,0.00,VWS V14.01,2013-08-11 21:44:00,
2013-08-11 14:49:00,85.5,29.1,29.53,West,281,6.3,6.3,13,0.00,,SKC,0.00,VWS V14.01,2013-08-11 21:49:00,
2013-08-11 14:54:00,85.3,28.9,29.50,NW,304,7.6,10.1,13,0.00,,SKC,0.00,VWS V14.01,2013-08-11 21:54:00,
2013-08-11 14:59:00,85.3,28.9,29.50,ENE,71,0.0,2.7,13,0.00,,SKC,0.00,VWS V14.01,2013-08-11 21:59:00,
2013-08-11 15:04:00,86.0,29.5,29.50,NW,308,5.8,8.3,13,0.00,,SKC,0.00,VWS V14.01,2013-08-11 22:04:00,
2013-08-11 15:09:00,85.8,29.4,29.53,WNW,300,6.3,6.3,13,0.00,,SKC,0.00,VWS V14.01,2013-08-11 22:09:00,
2013-08-11 15:14:00,86.0,29.5,29.53,WNW,299,10.1,11.0,13,0.00,,SKC,0.00,VWS V14.01,2013-08-11 22:14:00,
2013-08-11 15:19:00,85.8,29.4,29.53,NNW,333,5.4,6.3,13,0.00,,SKC,0.00,VWS V14.01,2013-08-11 22:19:00,
2013-08-11 15:24:00,85.5,29.1,29.53,WNW,291,12.3,15.4,13,0.00,,SKC,0.00,VWS V14.01,2013-08-11 22:24:00,
2013-08-11 15:29:00,84.9,28.6,29.53,WNW,295,12.8,12.8,13,0.00,,SKC,0.00,VWS V14.01,2013-08-11 22:29:00,
2013-08-11 15:34:00,84.9,28.6,29.53,NW,324,6.3,7.6,13,0.00,,SKC,0.00,VWS V14.01,2013-08-11 22:34:00,
2013-08-11 15:39:00,85.1,28.8,29.53,NNW,333,11.0,13.2,13,0.00,,SKC,0.00,VWS V14.01,2013-08-11 22:39:00,
2013-08-11 15:44:00,84.9,28.6,29.53,WNW,299,6.3,9.2,13,0.00,,SKC,0.00,VWS V14.01,2013-08-11 22:44:00,
2013-08-11 15:49:00,85.1,28.8,29.53,NNW,343,8.7,10.1,13,0.00,,SKC,0.00,VWS V14.01,2013-08-11 22:49:00,
2013-08-11 15:54:00,84.7,28.5,29.53,WNW,290,5.8,12.3,13,0.00,,SKC,0.00,VWS V14.01,2013-08-11 22:54:00,
2013-08-11 15:59:00,85.1,28.8,29.53,North,357,4.0,5.8,13,0.00,,SKC,0.00,VWS V14.01,2013-08-11 22:59:00,
2013-08-11 16:04:00,85.8,29.4,29.53,WNW,284,8.7,10.1,13,0.00,,SKC,0.00,VWS V14.01,2013-08-11 23:04:00,
2013-08-11 16:09:00,86.0,29.5,29.50,WNW,303,10.5,12.3,13,0.00,,SKC,0.00,VWS V14.01,2013-08-11 23:09:00,
2013-08-11 16:14:00,85.8,29.4,29.50,WNW,282,6.3,11.0,13,0.00,,SKC,0.00,VWS V14.01,2013-08-11 23:14:00,
2013-08-11 16:19:00,86.0,29.5,29.50,NW,305,5.4,8.7,13,0.00,,SKC,0.00,VWS V14.01,2013-08-11 23:19:00,
2013-08-11 16:24:00,85.6,29.2,29.53,WNW,285,11.0,11.0,13,0.00,,SKC,0.00,VWS V14.01,2013-08-11 23:24:00,
2013-08-11 16:29:00,85.3,28.9,29.53,WNW,300,8.3,10.1,13,0.00,,SKC,0.00,VWS V14.01,2013-08-11 23:29:00,
2013-08-11 16:34:00,85.5,29.1,29.53,West,266,5.4,5.4,13,0.00,,SKC,0.00,VWS V14.01,2013-08-11 23:34:00,
2013-08-11 16:39:00,84.9,28.6,29.53,NW,314,5.4,8.7,13,0.00,,SKC,0.00,VWS V14.01,2013-08-11 23:39:00,
2013-08-11 16:44:00,84.6,28.4,29.53,SSW,203,11.4,11.4,13,0.00,,SKC,0.00,VWS V14.01,2013-08-11 23:44:00,
2013-08-11 16:49:00,85.3,28.9,29.53,WNW,291,8.1,8.1,13,0.00,,SKC,0.00,VWS V14.01,2013-08-11 23:49:00,
2013-08-11 16:54:00,85.1,28.8,29.50,West,263,4.9,6.3,13,0.00,,SKC,0.00,VWS V14.01,2013-08-11 23:54:00,
2013-08-11 17:00:00,85.1,28.8,29.50,WNW,288,8.3,8.3,13,0.00,,SKC,0.00,VWS V14.01,2013-08-12 00:00:00,
2013-08-11 17:05:00,84.6,28.4,29.50,NNW,330,10.5,10.5,13,0.00,,SKC,0.00,VWS V14.01,2013-08-12 00:05:00,
2013-08-11 17:10:00,83.7,29.5,29.50,West,266,6.7,6.7,14,0.00,,SKC,0.00,VWS V14.01,2013-08-12 00:10:00,
2013-08-11 17:15:00,83.5,29.3,29.50,NW,314,7.6,8.1,14,0.00,,SKC,0.00,VWS V14.01,2013-08-12 00:15:00,
2013-08-11 17:20:00,83.5,29.3,29.50,West,262,7.6,7.6,14,0.00,,SKC,0.00,VWS V14.01,2013-08-12 00:20:00,
2013-08-11 17:25:00,83.1,29.0,29.50,NW,317,7.6,7.6,14,0.00,,SKC,0.00,VWS V14.01,2013-08-12 00:25:00,
2013-08-11 17:30:00,82.0,28.2,29.50,WNW,284,5.4,8.3,14,0.00,,SKC,0.00,VWS V14.01,2013-08-12 00:30:00,
2013-08-11 17:35:00,81.7,27.9,29.50,WNW,302,3.6,11.4,14,0.00,,SKC,0.00,VWS V14.01,2013-08-12 00:35:00,
2013-08-11 17:40:00,81.7,27.9,29.50,West,281,0.0,0.0,14,0.00,,SKC,0.00,VWS V14.01,2013-08-12 00:40:00,
2013-08-11 17:45:00,81.7,27.9,29.50,West,265,4.0,5.8,14,0.00,,SKC,0.00,VWS V14.01,2013-08-12 00:45:00,
2013-08-11 17:50:00,81.5,27.8,29.50,WNW,283,3.6,8.3,14,0.00,,SKC,0.00,VWS V14.01,2013-08-12 00:50:00,
2013-08-11 17:55:00,81.0,27.3,29.50,West,266,0.0,3.6,14,0.00,,SKC,0.00,VWS V14.01,2013-08-12 00:55:00,
2013-08-11 18:00:00,80.6,27.0,29.50,WNW,297,4.0,4.0,14,0.00,,SKC,0.00,VWS V14.01,2013-08-12 01:00:00,
2013-08-11 18:05:00,80.2,28.4,29.50,WSW,249,3.6,3.6,15,0.00,,SKC,0.00,VWS V14.01,2013-08-12 01:05:00,
2013-08-11 18:10:00,79.5,27.9,29.50,WNW,293,3.6,3.6,15,0.00,,SKC,0.00,VWS V14.01,2013-08-12 01:10:00,
2013-08-11 18:15:00,78.8,27.3,29.50,WNW,289,5.4,5.4,15,0.00,,SKC,0.00,VWS V14.01,2013-08-12 01:15:00,
2013-08-11 18:20:00,78.1,26.7,29.50,WNW,296,4.0,4.0,15,0.00,,SKC,0.00,VWS V14.01,2013-08-12 01:20:00,
2013-08-11 18:25:00,77.7,26.4,29.50,NW,324,6.7,6.7,15,0.00,,SKC,0.00,VWS V14.01,2013-08-12 01:25:00,
2013-08-11 18:31:00,77.5,26.3,29.50,NW,305,5.8,7.6,15,0.00,,SKC,0.00,VWS V14.01,2013-08-12 01:31:00,
2013-08-11 18:36:00,77.2,26.0,29.50,NNW,339,5.8,12.3,15,0.00,,SKC,0.00,VWS V14.01,2013-08-12 01:36:00,
2013-08-11 18:41:00,76.6,25.6,29.50,NW,325,5.4,8.3,15,0.00,,SKC,0.00,VWS V14.01,2013-08-12 01:41:00,
2013-08-11 18:46:00,76.3,25.3,29.50,West,267,5.4,8.3,15,0.00,,SKC,0.00,VWS V14.01,2013-08-12 01:46:00,
2013-08-11 18:51:00,75.9,25.0,29.50,West,281,5.4,8.7,15,0.00,,SKC,0.00,VWS V14.01,2013-08-12 01:51:00,
2013-08-11 18:56:00,75.7,24.9,29.50,West,275,8.1,8.7,15,0.00,,SKC,0.00,VWS V14.01,2013-08-12 01:56:00,
2013-08-11 19:01:00,75.4,24.6,29.50,NW,317,8.3,8.3,15,0.00,,SKC,0.00,VWS V14.01,2013-08-12 02:01:00,
2013-08-11 19:06:00,75.0,25.8,29.50,NW,318,5.4,5.4,16,0.00,,SKC,0.00,VWS V14.01,2013-08-12 02:06:00,
2013-08-11 19:11:00,74.8,25.7,29.53,WNW,285,5.4,5.4,16,0.00,,SKC,0.00,VWS V14.01,2013-08-12 02:11:00,
2013-08-11 19:16:00,74.5,25.4,29.53,NW,312,8.7,10.1,16,0.00,,SKC,0.00,VWS V14.01,2013-08-12 02:16:00,
2013-08-11 19:21:00,74.1,25.1,29.53,NW,314,5.8,6.3,16,0.00,,SKC,0.00,VWS V14.01,2013-08-12 02:21:00,
2013-08-11 19:26:00,73.6,24.7,29.50,NW,319,7.6,7.6,16,0.00,,SKC,0.00,VWS V14.01,2013-08-12 02:26:00,
2013-08-11 19:31:00,73.0,24.2,29.50,North,353,10.1,10.1,16,0.00,,SKC,0.00,VWS V14.01,2013-08-12 02:31:00,
2013-08-11 19:36:00,72.5,23.8,29.50,NW,321,7.6,10.1,16,0.00,,SKC,0.00,VWS V14.01,2013-08-12 02:36:00,
2013-08-11 19:42:00,72.3,23.6,29.50,NW,305,10.1,10.1,16,0.00,,SKC,0.00,VWS V14.01,2013-08-12 02:42:00,
2013-08-11 19:47:00,72.0,23.4,29.50,NW,317,10.5,10.5,16,0.00,,SKC,0.00,VWS V14.01,2013-08-12 02:47:00,
2013-08-11 19:52:00,71.6,23.1,29.50,WNW,290,7.6,7.6,16,0.00,,SKC,0.00,VWS V14.01,2013-08-12 02:52:00,
2013-08-11 19:57:00,71.6,23.1,29.53,NW,310,9.6,9.6,16,0.00,,SKC,0.00,VWS V14.01,2013-08-12 02:57:00,
2013-08-11 20:02:00,71.2,24.2,29.53,West,264,5.8,5.8,17,0.00,,SKC,0.00,VWS V14.01,2013-08-12 03:02:00,
2013-08-11 20:07:00,71.1,24.1,29.53,NW,313,11.0,11.0,17,0.00,,SKC,0.00,VWS V14.01,2013-08-12 03:07:00,
2013-08-11 20:12:00,71.1,24.1,29.50,NW,308,2.2,6.3,17,0.00,,SKC,0.00,VWS V14.01,2013-08-12 03:12:00,
2013-08-11 20:17:00,70.7,23.8,29.50,WNW,296,3.1,3.1,17,0.00,,SKC,0.00,VWS V14.01,2013-08-12 03:17:00,
2013-08-11 20:22:00,70.2,23.4,29.50,WNW,299,3.6,3.6,17,0.00,,SKC,0.00,VWS V14.01,2013-08-12 03:22:00,
2013-08-11 20:27:00,69.4,22.8,29.53,WNW,286,0.0,0.0,17,0.00,,SKC,0.00,VWS V14.01,2013-08-12 03:27:00,
2013-08-11 20:32:00,68.7,22.2,29.53,WNW,286,0.0,0.0,17,0.00,,SKC,0.00,VWS V14.01,2013-08-12 03:32:00,
2013-08-11 20:37:00,68.0,21.6,29.53,WNW,286,0.0,0.0,17,0.00,,SKC,0.00,VWS V14.01,2013-08-12 03:37:00,
2013-08-11 20:42:00,67.6,21.3,29.53,WNW,286,0.0,0.0,17,0.00,,SKC,0.00,VWS V14.01,2013-08-12 03:42:00,
2013-08-11 20:47:00,67.5,21.2,29.53,WNW,286,0.0,0.0,17,0.00,,SKC,0.00,VWS V14.01,2013-08-12 03:47:00,
2013-08-11 20:52:00,66.9,27.9,29.53,ESE,104,0.0,0.0,23,0.00,,SKC,0.00,VWS V14.01,2013-08-12 03:52:00,
2013-08-11 20:57:00,63.5,34.7,29.53,East,97,2.7,3.6,34,0.00,,SKC,0.00,VWS V14.01,2013-08-12 03:57:00,
2013-08-11 21:01:00,61.9,37.3,29.53,ESE,103,3.6,4.0,40,0.00,,SKC,0.00,VWS V14.01,2013-08-12 04:01:00,
2013-08-11 21:04:00,60.4,33.4,29.53,ESE,114,4.0,4.0,36,0.00,,SKC,0.00,VWS V14.01,2013-08-12 04:04:00,
2013-08-11 21:09:00,60.3,35.9,29.53,ESE,111,4.0,4.0,40,0.00,,SKC,0.00,VWS V14.01,2013-08-12 04:09:00,
2013-08-11 21:14:00,59.0,38.8,29.53,ESE,116,0.0,0.0,47,0.00,,SKC,0.00,VWS V14.01,2013-08-12 04:14:00,
2013-08-11 21:19:00,58.5,41.9,29.53,ESE,121,3.1,3.1,54,0.00,,SKC,0.00,VWS V14.01,2013-08-12 04:19:00,
2013-08-11 21:24:00,57.7,33.6,29.53,East,99,3.1,3.6,40,0.00,,SKC,0.00,VWS V14.01,2013-08-12 04:24:00,
2013-08-11 21:29:00,58.3,37.0,29.53,East,95,0.0,0.0,45,0.00,,SKC,0.00,VWS V14.01,2013-08-12 04:29:00,
2013-08-11 21:34:00,57.7,42.6,29.53,ESE,108,4.0,4.0,57,0.00,,SKC,0.00,VWS V14.01,2013-08-12 04:34:00,
2013-08-11 21:39:00,59.4,31.7,29.53,SSE,150,5.4,5.8,35,0.00,,SKC,0.00,VWS V14.01,2013-08-12 04:39:00,
2013-08-11 21:44:00,62.6,28.2,29.53,SE,138,4.0,6.3,27,0.00,,SKC,0.00,VWS V14.01,2013-08-12 04:44:00,
2013-08-11 21:49:00,65.8,27.0,29.53,SE,141,8.3,11.0,23,0.00,,SKC,0.00,VWS V14.01,2013-08-12 04:49:00,
2013-08-11 21:54:00,66.7,27.8,29.53,SE,134,8.3,8.3,23,0.00,,SKC,0.00,VWS V14.01,2013-08-12 04:54:00,
2013-08-11 21:59:00,67.3,27.2,29.53,SE,145,10.5,10.5,22,0.00,,SKC,0.00,VWS V14.01,2013-08-12 04:59:00,
2013-08-11 22:04:00,67.6,27.5,29.53,SSE,155,8.7,13.2,22,0.00,,SKC,0.00,VWS V14.01,2013-08-12 05:04:00,
2013-08-11 22:09:00,67.5,25.0,29.53,SE,131,10.5,10.5,20,0.00,,SKC,0.00,VWS V14.01,2013-08-12 05:09:00,
2013-08-11 22:14:00,67.5,25.0,29.53,SE,129,4.0,7.6,20,0.00,,SKC,0.00,VWS V14.01,2013-08-12 05:14:00,
2013-08-11 22:19:00,67.3,24.9,29.53,SE,144,4.0,5.4,20,0.00,,SKC,0.00,VWS V14.01,2013-08-12 05:19:00,
2013-08-11 22:24:00,67.3,24.9,29.53,SE,125,4.9,8.1,20,0.00,,SKC,0.00,VWS V14.01,2013-08-12 05:24:00,
2013-08-11 22:29:00,67.5,25.0,29.53,ESE,121,5.4,8.1,20,0.00,,SKC,0.00,VWS V14.01,2013-08-12 05:29:00,
2013-08-11 22:34:00,66.9,24.6,29.53,SE,125,5.8,7.6,20,0.00,,SKC,0.00,VWS V14.01,2013-08-12 05:34:00,
2013-08-11 22:39:00,66.4,24.1,29.53,SSE,160,0.0,0.0,20,0.00,,SKC,0.00,VWS V14.01,2013-08-12 05:39:00,
2013-08-11 22:44:00,65.7,26.9,29.53,SE,139,2.7,2.7,23,0.00,,SKC,0.00,VWS V14.01,2013-08-12 05:44:00,
2013-08-11 22:49:00,65.3,26.6,29.53,SE,146,2.2,2.7,23,0.00,,SKC,0.00,VWS V14.01,2013-08-12 05:49:00,
2013-08-11 22:54:00,65.1,26.4,29.53,SE,142,3.6,4.0,23,0.00,,SKC,0.00,VWS V14.01,2013-08-12 05:54:00,
2013-08-11 22:59:00,65.3,23.2,29.53,SE,133,4.0,5.4,20,0.00,,SKC,0.00,VWS V14.01,2013-08-12 05:59:00,
2013-08-11 23:04:00,65.3,23.2,29.53,ESE,119,0.0,0.0,20,0.00,,SKC,0.00,VWS V14.01,2013-08-12 06:04:00,
2013-08-11 23:09:00,64.9,26.3,29.53,ESE,119,0.0,0.0,23,0.00,,SKC,0.00,VWS V14.01,2013-08-12 06:09:00,
2013-08-11 23:14:00,64.8,26.1,29.53,SE,142,5.8,5.8,23,0.00,,SKC,0.00,VWS V14.01,2013-08-12 06:14:00,
2013-08-11 23:19:00,65.1,26.4,29.53,SSE,158,3.1,6.3,23,0.00,,SKC,0.00,VWS V14.01,2013-08-12 06:19:00,
2013-08-11 23:24:00,64.9,26.3,29.53,South,173,0.0,2.2,23,0.00,,SKC,0.00,VWS V14.01,2013-08-12 06:24:00,
2013-08-11 23:29:00,63.5,25.1,29.53,South,173,0.0,0.0,23,0.00,,SKC,0.00,VWS V14.01,2013-08-12 06:29:00,
2013-08-11 23:34:00,62.1,24.9,29.53,South,173,0.0,0.0,24,0.00,,SKC,0.00,VWS V14.01,2013-08-12 06:34:00,
2013-08-11 23:39:00,61.0,24.0,29.53,SSW,193,0.0,0.0,24,0.00,,SKC,0.00,VWS V14.01,2013-08-12 06:39:00,
2013-08-11 23:44:00,60.4,24.5,29.53,West,280,4.0,4.0,25,0.00,,SKC,0.00,VWS V14.01,2013-08-12 06:44:00,
2013-08-11 23:49:00,59.7,23.9,29.53,WNW,303,0.0,0.0,25,0.00,,SKC,0.00,VWS V14.01,2013-08-12 06:49:00,
2013-08-11 23:54:00,58.8,24.0,29.53,WNW,303,0.0,0.0,26,0.00,,SKC,0.00,VWS V14.01,2013-08-12 06:54:00,
2013-08-11 23:59:00,58.5,24.6,29.53,SSE,153,0.0,0.0,27,0.00,,SKC,0.00,VWS V14.01,2013-08-12 06:59:00,